sensor_id;sensor_type;location;lat;lon;timestamp;P1;durP1;ratioP1;P2;durP2;ratioP2
40705;SDS011;35790;50.790;20.800;2022-08-19T00:00:00;19.37;;;14.15;;
40705;SDS011;35790;50.790;20.800;2022-08-19T00:02:48;15.68;;;13.65;;
40705;SDS011;35790;50.790;20.800;2022-08-19T00:05:36;17.12;;;13.78;;
40705;SDS011;35790;50.790;20.800;2022-08-19T00:08:24;18.50;;;13.43;;
40705;SDS011;35790;50.790;20.800;2022-08-19T00:11:11;21.12;;;14.38;;
40705;SDS011;35790;50.790;20.800;2022-08-19T00:14:00;18.95;;;13.90;;
40705;SDS011;35790;50.790;20.800;2022-08-19T00:16:48;19.37;;;13.50;;
40705;SDS011;35790;50.790;20.800;2022-08-19T00:19:37;17.25;;;13.80;;
40705;SDS011;35790;50.790;20.800;2022-08-19T00:22:26;15.58;;;13.65;;
40705;SDS011;35790;50.790;20.800;2022-08-19T00:25:14;15.00;;;12.47;;
40705;SDS011;35790;50.790;20.800;2022-08-19T00:28:02;21.23;;;14.10;;
40705;SDS011;35790;50.790;20.800;2022-08-19T00:30:50;14.65;;;13.05;;
40705;SDS011;35790;50.790;20.800;2022-08-19T00:33:38;18.00;;;12.60;;
40705;SDS011;35790;50.790;20.800;2022-08-19T00:36:25;16.57;;;11.60;;
40705;SDS011;35790;50.790;20.800;2022-08-19T00:39:15;14.63;;;11.90;;
40705;SDS011;35790;50.790;20.800;2022-08-19T00:42:03;15.00;;;12.18;;
40705;SDS011;35790;50.790;20.800;2022-08-19T00:44:51;17.27;;;11.28;;
40705;SDS011;35790;50.790;20.800;2022-08-19T00:47:39;12.47;;;10.90;;
40705;SDS011;35790;50.790;20.800;2022-08-19T00:50:27;14.68;;;11.63;;
40705;SDS011;35790;50.790;20.800;2022-08-19T00:53:16;18.20;;;11.20;;
40705;SDS011;35790;50.790;20.800;2022-08-19T00:56:05;13.65;;;10.90;;
40705;SDS011;35790;50.790;20.800;2022-08-19T00:58:55;17.07;;;10.73;;
40705;SDS011;35790;50.790;20.800;2022-08-19T01:01:44;13.97;;;11.23;;
40705;SDS011;35790;50.790;20.800;2022-08-19T01:04:33;14.00;;;10.50;;
40705;SDS011;35790;50.790;20.800;2022-08-19T01:07:20;13.88;;;10.25;;
40705;SDS011;35790;50.790;20.800;2022-08-19T01:10:10;12.37;;;10.40;;
40705;SDS011;35790;50.790;20.800;2022-08-19T01:12:58;14.38;;;10.95;;
40705;SDS011;35790;50.790;20.800;2022-08-19T01:18:39;12.55;;;10.08;;
40705;SDS011;35790;50.790;20.800;2022-08-19T01:21:40;13.32;;;10.20;;
40705;SDS011;35790;50.790;20.800;2022-08-19T01:24:30;12.23;;;10.88;;
40705;SDS011;35790;50.790;20.800;2022-08-19T01:27:19;16.37;;;10.30;;
40705;SDS011;35790;50.790;20.800;2022-08-19T01:30:07;15.45;;;10.25;;
40705;SDS011;35790;50.790;20.800;2022-08-19T01:32:55;13.25;;;9.90;;
40705;SDS011;35790;50.790;20.800;2022-08-19T01:35:45;14.58;;;10.20;;
40705;SDS011;35790;50.790;20.800;2022-08-19T01:38:35;11.88;;;9.68;;
40705;SDS011;35790;50.790;20.800;2022-08-19T01:41:25;15.43;;;10.48;;
40705;SDS011;35790;50.790;20.800;2022-08-19T01:44:13;12.30;;;10.10;;
40705;SDS011;35790;50.790;20.800;2022-08-19T01:47:04;11.68;;;9.85;;
40705;SDS011;35790;50.790;20.800;2022-08-19T01:49:52;11.38;;;10.08;;
40705;SDS011;35790;50.790;20.800;2022-08-19T01:52:40;11.80;;;9.63;;
40705;SDS011;35790;50.790;20.800;2022-08-19T01:55:29;13.20;;;9.73;;
40705;SDS011;35790;50.790;20.800;2022-08-19T01:58:21;12.47;;;9.55;;
40705;SDS011;35790;50.790;20.800;2022-08-19T02:01:10;11.48;;;9.40;;
40705;SDS011;35790;50.790;20.800;2022-08-19T02:03:58;13.35;;;9.28;;
40705;SDS011;35790;50.790;20.800;2022-08-19T02:06:46;10.98;;;9.90;;
40705;SDS011;35790;50.790;20.800;2022-08-19T02:09:34;12.15;;;8.88;;
40705;SDS011;35790;50.790;20.800;2022-08-19T02:12:21;10.18;;;8.18;;
40705;SDS011;35790;50.790;20.800;2022-08-19T02:15:09;12.20;;;9.43;;
40705;SDS011;35790;50.790;20.800;2022-08-19T02:17:57;11.22;;;8.35;;
40705;SDS011;35790;50.790;20.800;2022-08-19T02:20:45;10.15;;;8.85;;
40705;SDS011;35790;50.790;20.800;2022-08-19T02:23:35;11.48;;;8.93;;
40705;SDS011;35790;50.790;20.800;2022-08-19T02:26:22;14.43;;;9.50;;
40705;SDS011;35790;50.790;20.800;2022-08-19T02:29:12;12.47;;;8.85;;
40705;SDS011;35790;50.790;20.800;2022-08-19T02:31:59;12.28;;;9.35;;
40705;SDS011;35790;50.790;20.800;2022-08-19T02:34:47;12.33;;;8.70;;
40705;SDS011;35790;50.790;20.800;2022-08-19T02:37:34;12.18;;;9.25;;
40705;SDS011;35790;50.790;20.800;2022-08-19T02:40:40;11.22;;;8.35;;
40705;SDS011;35790;50.790;20.800;2022-08-19T02:43:30;16.77;;;9.35;;
40705;SDS011;35790;50.790;20.800;2022-08-19T02:46:22;13.72;;;9.50;;
40705;SDS011;35790;50.790;20.800;2022-08-19T02:49:12;10.70;;;9.58;;
40705;SDS011;35790;50.790;20.800;2022-08-19T02:52:02;13.20;;;9.20;;
40705;SDS011;35790;50.790;20.800;2022-08-19T02:54:49;11.65;;;8.25;;
40705;SDS011;35790;50.790;20.800;2022-08-19T02:57:37;11.68;;;8.88;;
40705;SDS011;35790;50.790;20.800;2022-08-19T03:00:25;12.65;;;8.95;;
40705;SDS011;35790;50.790;20.800;2022-08-19T03:03:12;14.47;;;8.55;;
40705;SDS011;35790;50.790;20.800;2022-08-19T03:08:58;9.50;;;8.35;;
40705;SDS011;35790;50.790;20.800;2022-08-19T03:11:47;9.93;;;8.90;;
40705;SDS011;35790;50.790;20.800;2022-08-19T03:17:24;12.53;;;9.48;;
40705;SDS011;35790;50.790;20.800;2022-08-19T03:20:11;10.23;;;9.23;;
40705;SDS011;35790;50.790;20.800;2022-08-19T03:22:58;11.57;;;8.65;;
40705;SDS011;35790;50.790;20.800;2022-08-19T03:25:46;11.65;;;9.15;;
40705;SDS011;35790;50.790;20.800;2022-08-19T03:28:37;12.28;;;9.28;;
40705;SDS011;35790;50.790;20.800;2022-08-19T03:31:25;10.18;;;9.05;;
40705;SDS011;35790;50.790;20.800;2022-08-19T03:34:16;10.65;;;8.65;;
40705;SDS011;35790;50.790;20.800;2022-08-19T03:37:08;12.68;;;9.08;;
40705;SDS011;35790;50.790;20.800;2022-08-19T03:39:58;10.72;;;9.30;;
40705;SDS011;35790;50.790;20.800;2022-08-19T03:42:47;13.43;;;9.58;;
40705;SDS011;35790;50.790;20.800;2022-08-19T03:45:35;10.63;;;9.55;;
40705;SDS011;35790;50.790;20.800;2022-08-19T03:48:23;11.43;;;10.20;;
40705;SDS011;35790;50.790;20.800;2022-08-19T03:54:05;11.78;;;10.48;;
40705;SDS011;35790;50.790;20.800;2022-08-19T03:56:53;11.00;;;9.98;;
40705;SDS011;35790;50.790;20.800;2022-08-19T03:59:42;11.22;;;10.05;;
40705;SDS011;35790;50.790;20.800;2022-08-19T04:02:29;13.10;;;10.88;;
40705;SDS011;35790;50.790;20.800;2022-08-19T04:05:17;12.50;;;10.78;;
40705;SDS011;35790;50.790;20.800;2022-08-19T04:08:06;12.07;;;9.85;;
40705;SDS011;35790;50.790;20.800;2022-08-19T04:10:55;14.05;;;10.48;;
40705;SDS011;35790;50.790;20.800;2022-08-19T04:13:42;12.95;;;10.48;;
40705;SDS011;35790;50.790;20.800;2022-08-19T04:16:30;14.05;;;10.35;;
40705;SDS011;35790;50.790;20.800;2022-08-19T04:19:19;14.38;;;10.00;;
40705;SDS011;35790;50.790;20.800;2022-08-19T04:22:08;12.67;;;11.13;;
40705;SDS011;35790;50.790;20.800;2022-08-19T04:24:57;14.00;;;10.10;;
40705;SDS011;35790;50.790;20.800;2022-08-19T04:27:44;10.88;;;9.78;;
40705;SDS011;35790;50.790;20.800;2022-08-19T04:30:37;12.85;;;9.65;;
40705;SDS011;35790;50.790;20.800;2022-08-19T04:33:25;13.50;;;10.00;;
40705;SDS011;35790;50.790;20.800;2022-08-19T04:36:17;11.95;;;9.75;;
40705;SDS011;35790;50.790;20.800;2022-08-19T04:39:08;13.05;;;9.03;;
40705;SDS011;35790;50.790;20.800;2022-08-19T04:41:56;12.47;;;10.15;;
40705;SDS011;35790;50.790;20.800;2022-08-19T04:45:02;13.68;;;10.63;;
40705;SDS011;35790;50.790;20.800;2022-08-19T04:47:57;13.80;;;10.23;;
40705;SDS011;35790;50.790;20.800;2022-08-19T04:50:46;13.60;;;10.70;;
40705;SDS011;35790;50.790;20.800;2022-08-19T04:53:34;13.15;;;10.68;;
40705;SDS011;35790;50.790;20.800;2022-08-19T04:56:23;11.22;;;10.10;;
40705;SDS011;35790;50.790;20.800;2022-08-19T04:59:11;11.28;;;9.50;;
40705;SDS011;35790;50.790;20.800;2022-08-19T05:02:00;10.63;;;9.60;;
40705;SDS011;35790;50.790;20.800;2022-08-19T05:04:47;10.38;;;9.33;;
40705;SDS011;35790;50.790;20.800;2022-08-19T05:07:35;14.55;;;10.32;;
40705;SDS011;35790;50.790;20.800;2022-08-19T05:10:24;12.80;;;10.00;;
40705;SDS011;35790;50.790;20.800;2022-08-19T05:13:11;15.85;;;10.20;;
40705;SDS011;35790;50.790;20.800;2022-08-19T05:15:58;11.35;;;9.80;;
40705;SDS011;35790;50.790;20.800;2022-08-19T05:18:46;10.78;;;9.20;;
40705;SDS011;35790;50.790;20.800;2022-08-19T05:21:52;14.78;;;9.83;;
40705;SDS011;35790;50.790;20.800;2022-08-19T05:24:58;12.98;;;9.85;;
40705;SDS011;35790;50.790;20.800;2022-08-19T05:27:47;10.20;;;8.65;;
40705;SDS011;35790;50.790;20.800;2022-08-19T05:30:34;10.48;;;8.98;;
40705;SDS011;35790;50.790;20.800;2022-08-19T05:33:24;12.07;;;9.38;;
40705;SDS011;35790;50.790;20.800;2022-08-19T05:36:11;11.65;;;8.83;;
40705;SDS011;35790;50.790;20.800;2022-08-19T05:38:59;12.80;;;9.30;;
40705;SDS011;35790;50.790;20.800;2022-08-19T05:41:49;10.43;;;9.30;;
40705;SDS011;35790;50.790;20.800;2022-08-19T05:44:39;12.80;;;9.00;;
40705;SDS011;35790;50.790;20.800;2022-08-19T05:47:29;13.25;;;9.55;;
40705;SDS011;35790;50.790;20.800;2022-08-19T05:50:17;11.65;;;9.08;;
40705;SDS011;35790;50.790;20.800;2022-08-19T05:53:05;12.30;;;9.38;;
40705;SDS011;35790;50.790;20.800;2022-08-19T05:55:53;10.90;;;9.00;;
40705;SDS011;35790;50.790;20.800;2022-08-19T05:58:43;9.88;;;8.58;;
40705;SDS011;35790;50.790;20.800;2022-08-19T06:01:31;9.65;;;8.68;;
40705;SDS011;35790;50.790;20.800;2022-08-19T06:04:19;10.88;;;9.28;;
40705;SDS011;35790;50.790;20.800;2022-08-19T06:07:08;9.25;;;8.45;;
40705;SDS011;35790;50.790;20.800;2022-08-19T06:09:57;11.10;;;9.03;;
40705;SDS011;35790;50.790;20.800;2022-08-19T06:12:45;14.15;;;9.20;;
40705;SDS011;35790;50.790;20.800;2022-08-19T06:15:33;12.55;;;8.60;;
40705;SDS011;35790;50.790;20.800;2022-08-19T06:18:21;11.18;;;8.20;;
40705;SDS011;35790;50.790;20.800;2022-08-19T06:21:08;9.10;;;8.30;;
40705;SDS011;35790;50.790;20.800;2022-08-19T06:23:56;9.33;;;8.43;;
40705;SDS011;35790;50.790;20.800;2022-08-19T06:26:45;9.03;;;7.70;;
40705;SDS011;35790;50.790;20.800;2022-08-19T06:29:34;9.35;;;8.45;;
40705;SDS011;35790;50.790;20.800;2022-08-19T06:32:21;10.53;;;8.48;;
40705;SDS011;35790;50.790;20.800;2022-08-19T06:35:09;10.50;;;8.45;;
40705;SDS011;35790;50.790;20.800;2022-08-19T06:37:56;9.80;;;8.38;;
40705;SDS011;35790;50.790;20.800;2022-08-19T06:40:44;10.30;;;7.90;;
40705;SDS011;35790;50.790;20.800;2022-08-19T06:43:32;9.58;;;8.68;;
40705;SDS011;35790;50.790;20.800;2022-08-19T06:46:21;9.43;;;8.50;;
40705;SDS011;35790;50.790;20.800;2022-08-19T06:49:09;11.22;;;8.45;;
40705;SDS011;35790;50.790;20.800;2022-08-19T06:51:58;9.03;;;8.13;;
40705;SDS011;35790;50.790;20.800;2022-08-19T06:54:46;9.55;;;8.50;;
40705;SDS011;35790;50.790;20.800;2022-08-19T06:57:35;11.75;;;8.08;;
40705;SDS011;35790;50.790;20.800;2022-08-19T07:00:23;9.53;;;7.83;;
40705;SDS011;35790;50.790;20.800;2022-08-19T07:03:10;11.88;;;8.45;;
40705;SDS011;35790;50.790;20.800;2022-08-19T07:08:57;9.83;;;8.30;;
40705;SDS011;35790;50.790;20.800;2022-08-19T07:11:46;12.98;;;8.68;;
40705;SDS011;35790;50.790;20.800;2022-08-19T07:14:35;9.25;;;8.25;;
40705;SDS011;35790;50.790;20.800;2022-08-19T07:17:24;10.43;;;8.03;;
40705;SDS011;35790;50.790;20.800;2022-08-19T07:20:12;8.70;;;7.53;;
40705;SDS011;35790;50.790;20.800;2022-08-19T07:23:01;8.90;;;7.90;;
40705;SDS011;35790;50.790;20.800;2022-08-19T07:25:50;10.35;;;8.13;;
40705;SDS011;35790;50.790;20.800;2022-08-19T07:28:38;9.48;;;8.35;;
40705;SDS011;35790;50.790;20.800;2022-08-19T07:31:27;10.75;;;7.60;;
40705;SDS011;35790;50.790;20.800;2022-08-19T07:34:16;11.08;;;8.00;;
40705;SDS011;35790;50.790;20.800;2022-08-19T07:37:05;10.32;;;7.50;;
40705;SDS011;35790;50.790;20.800;2022-08-19T07:39:53;10.32;;;7.53;;
40705;SDS011;35790;50.790;20.800;2022-08-19T07:42:41;11.15;;;7.53;;
40705;SDS011;35790;50.790;20.800;2022-08-19T07:45:29;10.35;;;7.33;;
40705;SDS011;35790;50.790;20.800;2022-08-19T07:48:18;8.23;;;7.08;;
40705;SDS011;35790;50.790;20.800;2022-08-19T07:51:08;8.40;;;7.45;;
40705;SDS011;35790;50.790;20.800;2022-08-19T07:53:58;7.70;;;6.87;;
40705;SDS011;35790;50.790;20.800;2022-08-19T07:56:45;8.00;;;7.20;;
40705;SDS011;35790;50.790;20.800;2022-08-19T07:59:35;7.90;;;7.12;;
40705;SDS011;35790;50.790;20.800;2022-08-19T08:02:22;8.20;;;7.10;;
40705;SDS011;35790;50.790;20.800;2022-08-19T08:05:10;8.50;;;6.80;;
40705;SDS011;35790;50.790;20.800;2022-08-19T08:08:17;8.45;;;7.30;;
40705;SDS011;35790;50.790;20.800;2022-08-19T08:11:11;9.95;;;7.37;;
40705;SDS011;35790;50.790;20.800;2022-08-19T08:16:49;8.95;;;7.83;;
40705;SDS011;35790;50.790;20.800;2022-08-19T08:19:38;8.70;;;7.55;;
40705;SDS011;35790;50.790;20.800;2022-08-19T08:22:28;9.58;;;7.17;;
40705;SDS011;35790;50.790;20.800;2022-08-19T08:25:34;8.33;;;7.25;;
40705;SDS011;35790;50.790;20.800;2022-08-19T08:28:23;7.70;;;7.00;;
40705;SDS011;35790;50.790;20.800;2022-08-19T08:31:13;9.88;;;7.72;;
40705;SDS011;35790;50.790;20.800;2022-08-19T08:34:01;7.62;;;6.90;;
40705;SDS011;35790;50.790;20.800;2022-08-19T08:36:48;8.43;;;6.85;;
40705;SDS011;35790;50.790;20.800;2022-08-19T08:39:37;7.83;;;7.12;;
40705;SDS011;35790;50.790;20.800;2022-08-19T08:42:28;7.78;;;7.00;;
40705;SDS011;35790;50.790;20.800;2022-08-19T08:45:17;10.48;;;7.75;;
40705;SDS011;35790;50.790;20.800;2022-08-19T08:48:10;10.40;;;7.30;;
40705;SDS011;35790;50.790;20.800;2022-08-19T08:50:58;11.80;;;7.62;;
40705;SDS011;35790;50.790;20.800;2022-08-19T08:56:39;8.93;;;7.60;;
40705;SDS011;35790;50.790;20.800;2022-08-19T08:59:30;10.20;;;6.65;;
40705;SDS011;35790;50.790;20.800;2022-08-19T09:02:18;7.75;;;7.00;;
40705;SDS011;35790;50.790;20.800;2022-08-19T09:05:06;7.95;;;7.25;;
40705;SDS011;35790;50.790;20.800;2022-08-19T09:10:51;12.98;;;7.85;;
40705;SDS011;35790;50.790;20.800;2022-08-19T09:16:50;8.65;;;7.70;;
40705;SDS011;35790;50.790;20.800;2022-08-19T09:19:51;9.30;;;7.37;;
40705;SDS011;35790;50.790;20.800;2022-08-19T09:22:43;8.35;;;7.55;;
40705;SDS011;35790;50.790;20.800;2022-08-19T09:25:31;11.03;;;7.90;;
40705;SDS011;35790;50.790;20.800;2022-08-19T09:28:19;10.50;;;7.05;;
40705;SDS011;35790;50.790;20.800;2022-08-19T09:34:04;9.73;;;7.30;;
40705;SDS011;35790;50.790;20.800;2022-08-19T09:36:54;7.40;;;6.70;;
40705;SDS011;35790;50.790;20.800;2022-08-19T09:39:42;12.30;;;7.30;;
40705;SDS011;35790;50.790;20.800;2022-08-19T09:42:30;8.15;;;6.78;;
40705;SDS011;35790;50.790;20.800;2022-08-19T09:45:20;8.45;;;7.67;;
40705;SDS011;35790;50.790;20.800;2022-08-19T09:48:08;8.33;;;7.55;;
40705;SDS011;35790;50.790;20.800;2022-08-19T09:51:01;8.68;;;7.65;;
40705;SDS011;35790;50.790;20.800;2022-08-19T09:53:58;9.40;;;7.92;;
40705;SDS011;35790;50.790;20.800;2022-08-19T09:56:47;8.05;;;7.25;;
40705;SDS011;35790;50.790;20.800;2022-08-19T09:59:34;8.28;;;7.37;;
40705;SDS011;35790;50.790;20.800;2022-08-19T10:02:22;7.92;;;6.60;;
40705;SDS011;35790;50.790;20.800;2022-08-19T10:08:18;11.30;;;8.10;;
40705;SDS011;35790;50.790;20.800;2022-08-19T10:11:09;9.23;;;7.58;;
40705;SDS011;35790;50.790;20.800;2022-08-19T10:13:58;8.53;;;7.40;;
40705;SDS011;35790;50.790;20.800;2022-08-19T10:16:46;9.00;;;7.25;;
40705;SDS011;35790;50.790;20.800;2022-08-19T10:19:34;9.58;;;7.85;;
40705;SDS011;35790;50.790;20.800;2022-08-19T10:22:22;9.63;;;7.42;;
40705;SDS011;35790;50.790;20.800;2022-08-19T10:25:10;8.73;;;7.30;;
40705;SDS011;35790;50.790;20.800;2022-08-19T10:27:59;9.03;;;8.10;;
40705;SDS011;35790;50.790;20.800;2022-08-19T10:30:47;10.00;;;7.85;;
40705;SDS011;35790;50.790;20.800;2022-08-19T10:33:35;8.13;;;7.33;;
40705;SDS011;35790;50.790;20.800;2022-08-19T10:36:27;8.38;;;7.35;;
40705;SDS011;35790;50.790;20.800;2022-08-19T10:39:19;8.53;;;7.72;;
40705;SDS011;35790;50.790;20.800;2022-08-19T10:42:08;9.60;;;7.30;;
40705;SDS011;35790;50.790;20.800;2022-08-19T10:44:57;9.60;;;7.10;;
40705;SDS011;35790;50.790;20.800;2022-08-19T10:47:45;8.73;;;7.78;;
40705;SDS011;35790;50.790;20.800;2022-08-19T10:50:33;8.83;;;7.92;;
40705;SDS011;35790;50.790;20.800;2022-08-19T10:53:38;8.65;;;7.65;;
40705;SDS011;35790;50.790;20.800;2022-08-19T10:56:26;8.48;;;7.72;;
40705;SDS011;35790;50.790;20.800;2022-08-19T10:59:32;11.00;;;7.33;;
40705;SDS011;35790;50.790;20.800;2022-08-19T11:02:21;8.58;;;7.67;;
40705;SDS011;35790;50.790;20.800;2022-08-19T11:05:09;8.58;;;7.50;;
40705;SDS011;35790;50.790;20.800;2022-08-19T11:07:58;12.50;;;8.33;;
40705;SDS011;35790;50.790;20.800;2022-08-19T11:10:48;12.90;;;7.37;;
40705;SDS011;35790;50.790;20.800;2022-08-19T11:13:38;8.55;;;7.75;;
40705;SDS011;35790;50.790;20.800;2022-08-19T11:16:26;10.50;;;8.00;;
40705;SDS011;35790;50.790;20.800;2022-08-19T11:19:15;8.95;;;7.67;;
40705;SDS011;35790;50.790;20.800;2022-08-19T11:22:06;12.95;;;7.58;;
40705;SDS011;35790;50.790;20.800;2022-08-19T11:24:56;11.05;;;7.92;;
40705;SDS011;35790;50.790;20.800;2022-08-19T11:27:44;10.25;;;7.60;;
40705;SDS011;35790;50.790;20.800;2022-08-19T11:30:32;10.45;;;7.60;;
40705;SDS011;35790;50.790;20.800;2022-08-19T11:33:20;7.25;;;6.55;;
40705;SDS011;35790;50.790;20.800;2022-08-19T11:36:07;7.85;;;6.97;;
40705;SDS011;35790;50.790;20.800;2022-08-19T11:38:57;8.45;;;7.65;;
40705;SDS011;35790;50.790;20.800;2022-08-19T11:41:45;8.53;;;7.67;;
40705;SDS011;35790;50.790;20.800;2022-08-19T11:44:33;10.80;;;7.33;;
40705;SDS011;35790;50.790;20.800;2022-08-19T11:47:21;8.15;;;7.25;;
40705;SDS011;35790;50.790;20.800;2022-08-19T11:50:09;8.23;;;7.00;;
40705;SDS011;35790;50.790;20.800;2022-08-19T11:52:56;11.83;;;7.53;;
40705;SDS011;35790;50.790;20.800;2022-08-19T11:55:44;10.43;;;6.92;;
40705;SDS011;35790;50.790;20.800;2022-08-19T11:58:32;8.18;;;7.10;;
40705;SDS011;35790;50.790;20.800;2022-08-19T12:01:21;7.95;;;6.90;;
40705;SDS011;35790;50.790;20.800;2022-08-19T12:04:09;8.78;;;6.78;;
40705;SDS011;35790;50.790;20.800;2022-08-19T12:06:57;8.13;;;6.83;;
40705;SDS011;35790;50.790;20.800;2022-08-19T12:09:44;9.03;;;7.08;;
40705;SDS011;35790;50.790;20.800;2022-08-19T12:12:32;7.80;;;7.03;;
40705;SDS011;35790;50.790;20.800;2022-08-19T12:15:22;9.10;;;7.50;;
40705;SDS011;35790;50.790;20.800;2022-08-19T12:18:09;9.78;;;6.80;;
40705;SDS011;35790;50.790;20.800;2022-08-19T12:20:59;9.85;;;7.00;;
40705;SDS011;35790;50.790;20.800;2022-08-19T12:23:47;10.20;;;6.72;;
40705;SDS011;35790;50.790;20.800;2022-08-19T12:26:37;8.78;;;7.17;;
40705;SDS011;35790;50.790;20.800;2022-08-19T12:29:26;7.67;;;6.97;;
40705;SDS011;35790;50.790;20.800;2022-08-19T12:32:15;7.90;;;6.75;;
40705;SDS011;35790;50.790;20.800;2022-08-19T12:35:02;9.60;;;7.03;;
40705;SDS011;35790;50.790;20.800;2022-08-19T12:37:50;7.47;;;6.75;;
40705;SDS011;35790;50.790;20.800;2022-08-19T12:40:40;8.35;;;6.90;;
40705;SDS011;35790;50.790;20.800;2022-08-19T12:43:30;8.10;;;6.28;;
40705;SDS011;35790;50.790;20.800;2022-08-19T12:46:18;8.35;;;6.92;;
40705;SDS011;35790;50.790;20.800;2022-08-19T12:49:07;7.87;;;6.75;;
40705;SDS011;35790;50.790;20.800;2022-08-19T12:51:56;8.35;;;6.62;;
40705;SDS011;35790;50.790;20.800;2022-08-19T12:54:44;7.80;;;7.00;;
40705;SDS011;35790;50.790;20.800;2022-08-19T12:57:34;7.72;;;6.95;;
40705;SDS011;35790;50.790;20.800;2022-08-19T13:00:22;7.20;;;6.50;;
40705;SDS011;35790;50.790;20.800;2022-08-19T13:03:09;8.13;;;6.45;;
40705;SDS011;35790;50.790;20.800;2022-08-19T13:05:56;8.53;;;6.78;;
40705;SDS011;35790;50.790;20.800;2022-08-19T13:08:44;9.73;;;6.90;;
40705;SDS011;35790;50.790;20.800;2022-08-19T13:11:31;7.42;;;6.50;;
40705;SDS011;35790;50.790;20.800;2022-08-19T13:14:19;7.60;;;6.50;;
40705;SDS011;35790;50.790;20.800;2022-08-19T13:17:06;8.08;;;6.70;;
40705;SDS011;35790;50.790;20.800;2022-08-19T13:19:54;8.58;;;6.47;;
40705;SDS011;35790;50.790;20.800;2022-08-19T13:22:42;11.53;;;6.87;;
40705;SDS011;35790;50.790;20.800;2022-08-19T13:25:31;9.08;;;6.05;;
40705;SDS011;35790;50.790;20.800;2022-08-19T13:28:19;7.03;;;6.40;;
40705;SDS011;35790;50.790;20.800;2022-08-19T13:31:08;6.87;;;6.17;;
40705;SDS011;35790;50.790;20.800;2022-08-19T13:34:13;8.80;;;6.20;;
40705;SDS011;35790;50.790;20.800;2022-08-19T13:37:02;8.45;;;5.78;;
40705;SDS011;35790;50.790;20.800;2022-08-19T13:39:51;7.62;;;5.75;;
40705;SDS011;35790;50.790;20.800;2022-08-19T13:42:38;5.72;;;5.12;;
40705;SDS011;35790;50.790;20.800;2022-08-19T13:45:27;7.22;;;5.85;;
40705;SDS011;35790;50.790;20.800;2022-08-19T13:48:17;6.25;;;5.40;;
40705;SDS011;35790;50.790;20.800;2022-08-19T13:51:05;6.42;;;5.90;;
40705;SDS011;35790;50.790;20.800;2022-08-19T13:53:54;5.45;;;5.05;;
40705;SDS011;35790;50.790;20.800;2022-08-19T13:56:43;7.10;;;5.20;;
40705;SDS011;35790;50.790;20.800;2022-08-19T13:59:31;5.92;;;5.45;;
40705;SDS011;35790;50.790;20.800;2022-08-19T14:02:18;6.50;;;5.40;;
40705;SDS011;35790;50.790;20.800;2022-08-19T14:05:06;9.58;;;5.08;;
40705;SDS011;35790;50.790;20.800;2022-08-19T14:07:55;7.05;;;5.28;;
40705;SDS011;35790;50.790;20.800;2022-08-19T14:10:44;6.67;;;4.80;;
40705;SDS011;35790;50.790;20.800;2022-08-19T14:13:31;8.15;;;5.05;;
40705;SDS011;35790;50.790;20.800;2022-08-19T14:16:19;10.95;;;5.80;;
40705;SDS011;35790;50.790;20.800;2022-08-19T14:19:07;5.65;;;5.08;;
40705;SDS011;35790;50.790;20.800;2022-08-19T14:21:55;5.80;;;5.25;;
40705;SDS011;35790;50.790;20.800;2022-08-19T14:24:43;6.47;;;5.20;;
40705;SDS011;35790;50.790;20.800;2022-08-19T14:27:33;7.22;;;5.20;;
40705;SDS011;35790;50.790;20.800;2022-08-19T14:33:17;8.23;;;4.80;;
40705;SDS011;35790;50.790;20.800;2022-08-19T14:36:04;6.00;;;5.22;;
40705;SDS011;35790;50.790;20.800;2022-08-19T14:38:52;4.85;;;4.45;;
40705;SDS011;35790;50.790;20.800;2022-08-19T14:41:40;5.33;;;4.60;;
40705;SDS011;35790;50.790;20.800;2022-08-19T14:44:28;8.45;;;4.85;;
40705;SDS011;35790;50.790;20.800;2022-08-19T14:47:17;8.78;;;5.53;;
40705;SDS011;35790;50.790;20.800;2022-08-19T14:50:07;6.80;;;4.78;;
40705;SDS011;35790;50.790;20.800;2022-08-19T14:55:52;7.55;;;4.87;;
40705;SDS011;35790;50.790;20.800;2022-08-19T14:58:41;7.00;;;5.22;;
40705;SDS011;35790;50.790;20.800;2022-08-19T15:01:29;51.15;;;7.42;;
40705;SDS011;35790;50.790;20.800;2022-08-19T15:04:17;29.90;;;6.33;;
40705;SDS011;35790;50.790;20.800;2022-08-19T15:07:05;20.08;;;6.80;;
40705;SDS011;35790;50.790;20.800;2022-08-19T15:09:53;19.57;;;5.83;;
40705;SDS011;35790;50.790;20.800;2022-08-19T15:12:40;95.30;;;8.75;;
40705;SDS011;35790;50.790;20.800;2022-08-19T15:15:30;11.88;;;5.30;;
40705;SDS011;35790;50.790;20.800;2022-08-19T15:18:17;7.25;;;4.90;;
40705;SDS011;35790;50.790;20.800;2022-08-19T15:21:06;27.32;;;6.10;;
40705;SDS011;35790;50.790;20.800;2022-08-19T15:23:54;8.15;;;5.50;;
40705;SDS011;35790;50.790;20.800;2022-08-19T15:26:42;7.22;;;5.58;;
40705;SDS011;35790;50.790;20.800;2022-08-19T15:29:30;9.33;;;5.30;;
40705;SDS011;35790;50.790;20.800;2022-08-19T15:32:17;8.63;;;5.83;;
40705;SDS011;35790;50.790;20.800;2022-08-19T15:35:06;8.10;;;5.37;;
40705;SDS011;35790;50.790;20.800;2022-08-19T15:37:54;27.63;;;6.90;;
40705;SDS011;35790;50.790;20.800;2022-08-19T15:40:42;11.90;;;5.47;;
40705;SDS011;35790;50.790;20.800;2022-08-19T15:43:29;50.92;;;6.65;;
40705;SDS011;35790;50.790;20.800;2022-08-19T15:46:18;36.85;;;5.90;;
40705;SDS011;35790;50.790;20.800;2022-08-19T15:49:08;11.55;;;4.95;;
40705;SDS011;35790;50.790;20.800;2022-08-19T15:51:56;5.50;;;5.00;;
40705;SDS011;35790;50.790;20.800;2022-08-19T15:57:32;9.30;;;6.00;;
40705;SDS011;35790;50.790;20.800;2022-08-19T16:00:38;8.60;;;5.22;;
40705;SDS011;35790;50.790;20.800;2022-08-19T16:03:46;9.95;;;5.97;;
40705;SDS011;35790;50.790;20.800;2022-08-19T16:06:55;7.25;;;4.97;;
40705;SDS011;35790;50.790;20.800;2022-08-19T16:09:43;6.58;;;5.17;;
40705;SDS011;35790;50.790;20.800;2022-08-19T16:12:30;10.05;;;5.50;;
40705;SDS011;35790;50.790;20.800;2022-08-19T16:15:18;6.30;;;5.22;;
40705;SDS011;35790;50.790;20.800;2022-08-19T16:18:06;7.95;;;5.60;;
40705;SDS011;35790;50.790;20.800;2022-08-19T16:20:53;7.92;;;5.97;;
40705;SDS011;35790;50.790;20.800;2022-08-19T16:23:42;8.25;;;5.05;;
40705;SDS011;35790;50.790;20.800;2022-08-19T16:26:32;10.72;;;5.72;;
40705;SDS011;35790;50.790;20.800;2022-08-19T16:29:20;8.70;;;5.30;;
40705;SDS011;35790;50.790;20.800;2022-08-19T16:32:10;8.20;;;5.72;;
40705;SDS011;35790;50.790;20.800;2022-08-19T16:34:58;7.53;;;5.80;;
40705;SDS011;35790;50.790;20.800;2022-08-19T16:37:50;8.75;;;5.72;;
40705;SDS011;35790;50.790;20.800;2022-08-19T16:40:38;7.00;;;5.80;;
40705;SDS011;35790;50.790;20.800;2022-08-19T16:43:27;8.25;;;5.80;;
40705;SDS011;35790;50.790;20.800;2022-08-19T16:46:16;8.85;;;6.15;;
40705;SDS011;35790;50.790;20.800;2022-08-19T16:49:06;7.90;;;6.12;;
40705;SDS011;35790;50.790;20.800;2022-08-19T16:54:42;7.33;;;6.28;;
40705;SDS011;35790;50.790;20.800;2022-08-19T16:57:29;7.55;;;6.28;;
40705;SDS011;35790;50.790;20.800;2022-08-19T17:00:18;8.10;;;6.50;;
40705;SDS011;35790;50.790;20.800;2022-08-19T17:03:06;9.98;;;6.78;;
40705;SDS011;35790;50.790;20.800;2022-08-19T17:05:57;7.33;;;6.60;;
40705;SDS011;35790;50.790;20.800;2022-08-19T17:08:48;10.60;;;6.45;;
40705;SDS011;35790;50.790;20.800;2022-08-19T17:11:37;9.80;;;6.53;;
40705;SDS011;35790;50.790;20.800;2022-08-19T17:14:25;11.12;;;7.00;;
40705;SDS011;35790;50.790;20.800;2022-08-19T17:17:12;10.93;;;6.33;;